sensor_id;sensor_type;location;lat;lon;timestamp;pressure;altitude;pressure_sealevel;temperature;humidity
59493;BME280;45497;43.996;22.876;2023-12-07T00:01:40;101204.72;;;5.77;59.56
59493;BME280;45497;43.996;22.876;2023-12-07T00:04:05;101191.34;;;5.68;59.56
59493;BME280;45497;43.996;22.876;2023-12-07T00:06:31;101198.16;;;5.71;59.48
59493;BME280;45497;43.996;22.876;2023-12-07T00:09:00;101198.00;;;5.72;59.54
59493;BME280;45497;43.996;22.876;2023-12-07T00:11:26;101194.22;;;5.65;59.60
59493;BME280;45497;43.996;22.876;2023-12-07T00:13:52;101197.69;;;5.66;60.04
59493;BME280;45497;43.996;22.876;2023-12-07T00:16:17;101195.13;;;5.75;59.64
59493;BME280;45497;43.996;22.876;2023-12-07T00:18:43;101200.59;;;5.84;59.74
59493;BME280;45497;43.996;22.876;2023-12-07T00:21:09;101203.13;;;5.85;59.86
59493;BME280;45497;43.996;22.876;2023-12-07T00:23:35;101204.31;;;5.81;59.61
59493;BME280;45497;43.996;22.876;2023-12-07T00:26:03;101210.03;;;5.86;59.81
59493;BME280;45497;43.996;22.876;2023-12-07T00:28:29;101213.31;;;5.79;59.94
59493;BME280;45497;43.996;22.876;2023-12-07T00:30:55;101223.06;;;5.88;59.64
59493;BME280;45497;43.996;22.876;2023-12-07T00:33:21;101201.56;;;5.83;59.66
59493;BME280;45497;43.996;22.876;2023-12-07T00:35:47;101212.06;;;5.83;59.39
59493;BME280;45497;43.996;22.876;2023-12-07T00:38:13;101208.69;;;5.92;59.63
59493;BME280;45497;43.996;22.876;2023-12-07T00:40:46;101210.84;;;5.98;59.46
59493;BME280;45497;43.996;22.876;2023-12-07T00:43:32;101208.09;;;6.00;59.22
59493;BME280;45497;43.996;22.876;2023-12-07T00:45:58;101208.28;;;6.08;59.16
59493;BME280;45497;43.996;22.876;2023-12-07T00:48:24;101212.19;;;6.13;59.36
59493;BME280;45497;43.996;22.876;2023-12-07T00:50:49;101208.34;;;6.18;59.08
59493;BME280;45497;43.996;22.876;2023-12-07T00:53:15;101215.97;;;6.21;59.22
59493;BME280;45497;43.996;22.876;2023-12-07T00:55:41;101219.31;;;6.23;59.05
59493;BME280;45497;43.996;22.876;2023-12-07T00:58:06;101210.59;;;6.22;58.90
59493;BME280;45497;43.996;22.876;2023-12-07T01:00:32;101214.91;;;6.23;59.22
59493;BME280;45497;43.996;22.876;2023-12-07T01:03:00;101206.59;;;6.28;59.12
59493;BME280;45497;43.996;22.876;2023-12-07T01:05:26;101210.91;;;6.29;59.11
59493;BME280;45497;43.996;22.876;2023-12-07T01:07:51;101213.53;;;6.29;59.13
59493;BME280;45497;43.996;22.876;2023-12-07T01:10:17;101210.59;;;6.22;59.22
59493;BME280;45497;43.996;22.876;2023-12-07T01:12:43;101219.88;;;6.26;59.31
59493;BME280;45497;43.996;22.876;2023-12-07T01:15:10;101219.31;;;6.23;59.32
59493;BME280;45497;43.996;22.876;2023-12-07T01:17:36;101221.00;;;6.24;59.23
59493;BME280;45497;43.996;22.876;2023-12-07T01:20:04;101213.91;;;6.24;59.59
59493;BME280;45497;43.996;22.876;2023-12-07T01:22:32;101226.00;;;6.27;59.32
59493;BME280;45497;43.996;22.876;2023-12-07T01:25:01;101216.25;;;6.18;59.64
59493;BME280;45497;43.996;22.876;2023-12-07T01:27:26;101210.84;;;6.19;59.52
59493;BME280;45497;43.996;22.876;2023-12-07T01:29:53;101208.53;;;6.05;59.37
59493;BME280;45497;43.996;22.876;2023-12-07T01:32:19;101214.53;;;6.07;59.83
59493;BME280;45497;43.996;22.876;2023-12-07T01:34:45;101218.56;;;6.11;59.88
59493;BME280;45497;43.996;22.876;2023-12-07T01:37:10;101218.72;;;6.19;59.48
59493;BME280;45497;43.996;22.876;2023-12-07T01:39:36;101209.44;;;6.15;59.56
59493;BME280;45497;43.996;22.876;2023-12-07T01:42:02;101203.84;;;6.08;59.44
59493;BME280;45497;43.996;22.876;2023-12-07T01:44:28;101213.16;;;6.12;59.83
59493;BME280;45497;43.996;22.876;2023-12-07T01:46:54;101210.78;;;6.09;59.79
59493;BME280;45497;43.996;22.876;2023-12-07T01:49:20;101209.69;;;6.12;59.76
59493;BME280;45497;43.996;22.876;2023-12-07T01:51:46;101211.88;;;6.07;60.09
59493;BME280;45497;43.996;22.876;2023-12-07T01:54:12;101201.59;;;6.04;59.58
59493;BME280;45497;43.996;22.876;2023-12-07T01:56:37;101206.34;;;6.10;60.05
59493;BME280;45497;43.996;22.876;2023-12-07T01:59:03;101194.78;;;6.01;59.98
59493;BME280;45497;43.996;22.876;2023-12-07T02:01:29;101203.84;;;6.08;59.73
59493;BME280;45497;43.996;22.876;2023-12-07T02:03:55;101204.56;;;6.10;59.80
59493;BME280;45497;43.996;22.876;2023-12-07T02:06:20;101197.50;;;6.11;59.56
59493;BME280;45497;43.996;22.876;2023-12-07T02:08:46;101196.38;;;6.13;59.77
59493;BME280;45497;43.996;22.876;2023-12-07T02:11:12;101195.44;;;6.15;59.91
59493;BME280;45497;43.996;22.876;2023-12-07T02:13:39;101195.31;;;6.16;59.49
59493;BME280;45497;43.996;22.876;2023-12-07T02:16:11;101190.56;;;6.10;59.75
59493;BME280;45497;43.996;22.876;2023-12-07T02:18:45;101201.50;;;5.94;60.09
59493;BME280;45497;43.996;22.876;2023-12-07T02:21:22;101191.84;;;5.83;60.30
59493;BME280;45497;43.996;22.876;2023-12-07T02:23:51;101192.59;;;5.85;60.50
59493;BME280;45497;43.996;22.876;2023-12-07T02:26:49;101199.84;;;5.93;60.79
59493;BME280;45497;43.996;22.876;2023-12-07T02:29:14;101205.81;;;5.95;60.57
59493;BME280;45497;43.996;22.876;2023-12-07T02:31:40;101204.34;;;6.02;60.42
59493;BME280;45497;43.996;22.876;2023-12-07T02:34:06;101202.25;;;5.96;60.55
59493;BME280;45497;43.996;22.876;2023-12-07T02:36:33;101206.44;;;5.87;60.47
59493;BME280;45497;43.996;22.876;2023-12-07T02:39:00;101196.34;;;5.71;60.65
59493;BME280;45497;43.996;22.876;2023-12-07T02:41:30;101196.25;;;5.62;61.66
59493;BME280;45497;43.996;22.876;2023-12-07T02:43:59;101205.91;;;5.72;61.17
59493;BME280;45497;43.996;22.876;2023-12-07T02:46:25;101194.66;;;5.49;61.78
59493;BME280;45497;43.996;22.876;2023-12-07T02:48:51;101194.78;;;5.36;62.24
59493;BME280;45497;43.996;22.876;2023-12-07T02:51:17;101206.19;;;5.26;62.66
59493;BME280;45497;43.996;22.876;2023-12-07T02:53:43;101197.25;;;5.06;63.07
59493;BME280;45497;43.996;22.876;2023-12-07T02:56:09;101203.59;;;5.03;63.45
59493;BME280;45497;43.996;22.876;2023-12-07T02:58:34;101195.75;;;4.92;64.14
59493;BME280;45497;43.996;22.876;2023-12-07T03:01:00;101202.38;;;5.19;63.70
59493;BME280;45497;43.996;22.876;2023-12-07T03:03:26;101210.72;;;5.24;63.22
59493;BME280;45497;43.996;22.876;2023-12-07T03:05:51;101215.81;;;5.36;62.63
59493;BME280;45497;43.996;22.876;2023-12-07T03:08:17;101215.94;;;5.46;62.77
59493;BME280;45497;43.996;22.876;2023-12-07T03:10:43;101215.94;;;5.46;62.53
59493;BME280;45497;43.996;22.876;2023-12-07T03:13:08;101214.13;;;5.47;62.27
59493;BME280;45497;43.996;22.876;2023-12-07T03:15:34;101232.41;;;5.48;62.45
59493;BME280;45497;43.996;22.876;2023-12-07T03:18:00;101226.41;;;5.58;62.34
59493;BME280;45497;43.996;22.876;2023-12-07T03:20:25;101220.06;;;5.60;62.24
59493;BME280;45497;43.996;22.876;2023-12-07T03:22:51;101219.34;;;5.58;62.01
59493;BME280;45497;43.996;22.876;2023-12-07T03:25:20;101218.47;;;5.69;62.20
59493;BME280;45497;43.996;22.876;2023-12-07T03:27:45;101220.03;;;5.71;61.88
59493;BME280;45497;43.996;22.876;2023-12-07T03:30:11;101225.03;;;5.74;61.78
59493;BME280;45497;43.996;22.876;2023-12-07T03:32:37;101223.47;;;5.72;61.91
59493;BME280;45497;43.996;22.876;2023-12-07T03:35:03;101223.47;;;5.72;62.19
59493;BME280;45497;43.996;22.876;2023-12-07T03:37:28;101233.81;;;5.64;62.08
59493;BME280;45497;43.996;22.876;2023-12-07T03:39:54;101218.91;;;5.53;62.24
59493;BME280;45497;43.996;22.876;2023-12-07T03:42:19;101232.50;;;5.58;62.34
59493;BME280;45497;43.996;22.876;2023-12-07T03:44:45;101230.59;;;5.49;62.85
59493;BME280;45497;43.996;22.876;2023-12-07T03:47:11;101233.75;;;5.43;62.82
59493;BME280;45497;43.996;22.876;2023-12-07T03:49:36;101233.16;;;5.39;63.50
59493;BME280;45497;43.996;22.876;2023-12-07T03:52:04;101237.31;;;5.42;63.49
59493;BME280;45497;43.996;22.876;2023-12-07T03:54:31;101229.19;;;5.45;63.28
59493;BME280;45497;43.996;22.876;2023-12-07T03:56:56;101231.72;;;5.46;62.96
59493;BME280;45497;43.996;22.876;2023-12-07T03:59:22;101226.31;;;5.48;63.13
59493;BME280;45497;43.996;22.876;2023-12-07T04:01:48;101232.50;;;5.58;62.86
59493;BME280;45497;43.996;22.876;2023-12-07T04:04:13;101227.38;;;5.57;62.98
59493;BME280;45497;43.996;22.876;2023-12-07T04:06:39;101220.31;;;5.57;63.13
59493;BME280;45497;43.996;22.876;2023-12-07T04:09:05;101231.78;;;5.56;62.92
59493;BME280;45497;43.996;22.876;2023-12-07T04:11:31;101234.28;;;5.58;63.35
59493;BME280;45497;43.996;22.876;2023-12-07T04:13:57;101247.09;;;5.62;62.95
59493;BME280;45497;43.996;22.876;2023-12-07T04:16:22;101245.03;;;5.66;63.17
59493;BME280;45497;43.996;22.876;2023-12-07T04:18:49;101253.41;;;5.71;63.10
59493;BME280;45497;43.996;22.876;2023-12-07T04:21:15;101251.47;;;5.73;63.36
59493;BME280;45497;43.996;22.876;2023-12-07T04:23:40;101244.88;;;5.79;62.96
59493;BME280;45497;43.996;22.876;2023-12-07T04:26:09;101258.84;;;5.79;62.66
59493;BME280;45497;43.996;22.876;2023-12-07T04:28:35;101260.78;;;5.77;62.94
59493;BME280;45497;43.996;22.876;2023-12-07T04:31:04;101266.41;;;5.72;62.88
59493;BME280;45497;43.996;22.876;2023-12-07T04:33:33;101268.94;;;5.63;63.19
59493;BME280;45497;43.996;22.876;2023-12-07T04:42:39;101276.34;;;5.69;63.35
59493;BME280;45497;43.996;22.876;2023-12-07T04:45:05;101275.16;;;5.73;63.44
59493;BME280;45497;43.996;22.876;2023-12-07T04:47:32;101270.13;;;5.70;63.80
59493;BME280;45497;43.996;22.876;2023-12-07T04:49:58;101279.13;;;5.67;63.81
59493;BME280;45497;43.996;22.876;2023-12-07T04:52:24;101291.41;;;5.78;63.68
59493;BME280;45497;43.996;22.876;2023-12-07T04:54:49;101277.09;;;5.92;63.31
59493;BME280;45497;43.996;22.876;2023-12-07T04:57:15;101281.91;;;5.98;63.07
59493;BME280;45497;43.996;22.876;2023-12-07T04:59:40;101272.13;;;5.78;63.37
59493;BME280;45497;43.996;22.876;2023-12-07T05:02:06;101277.66;;;5.74;63.78
59493;BME280;45497;43.996;22.876;2023-12-07T05:04:32;101277.66;;;5.74;63.60
59493;BME280;45497;43.996;22.876;2023-12-07T05:07:14;101277.94;;;5.92;63.56
59493;BME280;45497;43.996;22.876;2023-12-07T05:09:40;101278.25;;;5.78;63.43
59493;BME280;45497;43.996;22.876;2023-12-07T05:12:08;101285.66;;;5.73;64.20
59493;BME280;45497;43.996;22.876;2023-12-07T05:14:34;101287.09;;;5.77;64.45
59493;BME280;45497;43.996;22.876;2023-12-07T05:17:03;101273.75;;;5.90;63.76
59493;BME280;45497;43.996;22.876;2023-12-07T05:19:30;101278.66;;;5.94;63.65
59493;BME280;45497;43.996;22.876;2023-12-07T05:21:56;101282.16;;;5.84;64.03
59493;BME280;45497;43.996;22.876;2023-12-07T05:24:22;101287.16;;;5.98;63.94
59493;BME280;45497;43.996;22.876;2023-12-07T05:26:48;101294.88;;;6.11;63.69
59493;BME280;45497;43.996;22.876;2023-12-07T05:29:16;101295.03;;;6.30;63.02
59493;BME280;45497;43.996;22.876;2023-12-07T05:31:42;101297.03;;;6.38;62.71
59493;BME280;45497;43.996;22.876;2023-12-07T05:34:07;101314.19;;;6.54;62.65
59493;BME280;45497;43.996;22.876;2023-12-07T05:36:33;101294.88;;;6.53;62.31
59493;BME280;45497;43.996;22.876;2023-12-07T05:38:59;101297.16;;;6.58;62.10
59493;BME280;45497;43.996;22.876;2023-12-07T05:41:25;101310.25;;;6.69;62.13
59493;BME280;45497;43.996;22.876;2023-12-07T05:43:52;101309.00;;;6.73;61.76
59493;BME280;45497;43.996;22.876;2023-12-07T05:46:21;101312.66;;;6.82;61.86
59493;BME280;45497;43.996;22.876;2023-12-07T05:48:50;101306.88;;;6.88;61.66
59493;BME280;45497;43.996;22.876;2023-12-07T05:51:17;101322.75;;;6.98;61.65
59493;BME280;45497;43.996;22.876;2023-12-07T05:53:45;101315.53;;;7.00;61.55
59493;BME280;45497;43.996;22.876;2023-12-07T05:56:11;101306.59;;;6.91;61.15
59493;BME280;45497;43.996;22.876;2023-12-07T05:58:37;101313.00;;;6.88;61.70
59493;BME280;45497;43.996;22.876;2023-12-07T06:01:03;101320.91;;;6.88;61.44
59493;BME280;45497;43.996;22.876;2023-12-07T06:03:31;101326.25;;;6.77;61.91
59493;BME280;45497;43.996;22.876;2023-12-07T06:05:57;101327.31;;;6.75;61.58
59493;BME280;45497;43.996;22.876;2023-12-07T06:08:23;101343.72;;;6.78;61.74
59493;BME280;45497;43.996;22.876;2023-12-07T06:10:48;101340.69;;;6.83;61.72
59493;BME280;45497;43.996;22.876;2023-12-07T06:13:14;101349.19;;;6.86;61.79
59493;BME280;45497;43.996;22.876;2023-12-07T06:15:42;101348.03;;;6.79;61.83
59493;BME280;45497;43.996;22.876;2023-12-07T06:18:12;101348.16;;;6.78;62.07
59493;BME280;45497;43.996;22.876;2023-12-07T06:20:37;101348.06;;;6.89;62.00
59493;BME280;45497;43.996;22.876;2023-12-07T06:23:03;101342.00;;;6.98;61.83
59493;BME280;45497;43.996;22.876;2023-12-07T06:25:29;101346.22;;;7.01;61.53
59493;BME280;45497;43.996;22.876;2023-12-07T06:27:55;101348.44;;;7.05;61.51
59493;BME280;45497;43.996;22.876;2023-12-07T06:30:22;101363.03;;;7.10;61.42
59493;BME280;45497;43.996;22.876;2023-12-07T06:32:51;101364.81;;;7.09;61.20
59493;BME280;45497;43.996;22.876;2023-12-07T06:35:19;101354.25;;;6.99;61.63
59493;BME280;45497;43.996;22.876;2023-12-07T06:37:47;101362.72;;;7.03;61.68
59493;BME280;45497;43.996;22.876;2023-12-07T06:40:13;101367.22;;;7.12;61.47
59493;BME280;45497;43.996;22.876;2023-12-07T06:42:42;101365.00;;;7.17;61.30
59493;BME280;45497;43.996;22.876;2023-12-07T06:45:08;101360.25;;;7.11;61.39
59493;BME280;45497;43.996;22.876;2023-12-07T06:47:40;101367.47;;;7.09;61.45
59493;BME280;45497;43.996;22.876;2023-12-07T06:50:10;101366.59;;;6.99;61.54
59493;BME280;45497;43.996;22.876;2023-12-07T06:52:36;101373.06;;;6.95;61.78
59493;BME280;45497;43.996;22.876;2023-12-07T06:55:02;101369.59;;;6.94;61.55
59493;BME280;45497;43.996;22.876;2023-12-07T06:57:33;101379.81;;;6.87;61.97
59493;BME280;45497;43.996;22.876;2023-12-07T07:00:00;101381.38;;;6.90;62.01
59493;BME280;45497;43.996;22.876;2023-12-07T07:02:26;101378.63;;;6.92;61.94
59493;BME280;45497;43.996;22.876;2023-12-07T07:04:53;101383.91;;;6.92;61.86
59493;BME280;45497;43.996;22.876;2023-12-07T07:07:18;101388.50;;;6.78;61.85
59493;BME280;45497;43.996;22.876;2023-12-07T07:09:44;101380.44;;;6.70;62.35
59493;BME280;45497;43.996;22.876;2023-12-07T07:12:12;101392.56;;;6.61;62.48
59493;BME280;45497;43.996;22.876;2023-12-07T07:14:37;101394.78;;;6.45;62.86
59493;BME280;45497;43.996;22.876;2023-12-07T07:17:04;101386.91;;;6.45;62.79
59493;BME280;45497;43.996;22.876;2023-12-07T07:19:30;101390.72;;;6.41;63.26
59493;BME280;45497;43.996;22.876;2023-12-07T07:21:55;101386.91;;;6.34;63.48
59493;BME280;45497;43.996;22.876;2023-12-07T07:26:50;101392.06;;;6.35;63.34
59493;BME280;45497;43.996;22.876;2023-12-07T07:29:16;101401.09;;;6.21;63.42
59493;BME280;45497;43.996;22.876;2023-12-07T07:31:41;101391.88;;;6.16;63.58
59493;BME280;45497;43.996;22.876;2023-12-07T07:34:07;101402.56;;;6.14;63.66
59493;BME280;45497;43.996;22.876;2023-12-07T07:36:33;101399.66;;;6.17;63.83
59493;BME280;45497;43.996;22.876;2023-12-07T07:38:59;101405.75;;;6.29;63.71
59493;BME280;45497;43.996;22.876;2023-12-07T07:41:25;101408.50;;;6.27;63.81
59493;BME280;45497;43.996;22.876;2023-12-07T07:43:50;101405.75;;;6.29;63.71
59493;BME280;45497;43.996;22.876;2023-12-07T07:46:16;101398.25;;;6.13;64.13
59493;BME280;45497;43.996;22.876;2023-12-07T07:48:46;101413.69;;;6.18;63.91
59493;BME280;45497;43.996;22.876;2023-12-07T07:51:12;101412.63;;;6.09;64.40
59493;BME280;45497;43.996;22.876;2023-12-07T07:53:38;101407.59;;;5.94;64.39
59493;BME280;45497;43.996;22.876;2023-12-07T07:56:04;101405.78;;;5.95;64.65
59493;BME280;45497;43.996;22.876;2023-12-07T07:58:32;101418.13;;;6.06;64.69
59493;BME280;45497;43.996;22.876;2023-12-07T08:01:03;101410.13;;;6.07;64.55
59493;BME280;45497;43.996;22.876;2023-12-07T08:03:29;101422.19;;;6.10;64.11
59493;BME280;45497;43.996;22.876;2023-12-07T08:05:55;101420.28;;;6.01;64.46
59493;BME280;45497;43.996;22.876;2023-12-07T08:08:21;101426.72;;;6.08;64.56
59493;BME280;45497;43.996;22.876;2023-12-07T08:10:46;101427.94;;;5.81;65.27
59493;BME280;45497;43.996;22.876;2023-12-07T08:13:12;101442.66;;;5.84;65.42
59493;BME280;45497;43.996;22.876;2023-12-07T08:15:38;101442.63;;;5.95;65.20
59493;BME280;45497;43.996;22.876;2023-12-07T08:18:04;101446.13;;;6.07;64.66
59493;BME280;45497;43.996;22.876;2023-12-07T08:20:35;101434.16;;;6.14;64.50
59493;BME280;45497;43.996;22.876;2023-12-07T08:23:23;101446.22;;;6.17;64.37
59493;BME280;45497;43.996;22.876;2023-12-07T08:25:59;101444.75;;;6.24;63.90
59493;BME280;45497;43.996;22.876;2023-12-07T08:28:24;101452.38;;;6.38;64.08
59493;BME280;45497;43.996;22.876;2023-12-07T08:30:50;101457.19;;;6.65;63.49
59493;BME280;45497;43.996;22.876;2023-12-07T08:33:15;101453.03;;;6.30;64.48
59493;BME280;45497;43.996;22.876;2023-12-07T08:35:41;101465.13;;;7.07;65.67
59493;BME280;45497;43.996;22.876;2023-12-07T08:38:10;101463.69;;;8.17;66.81
59493;BME280;45497;43.996;22.876;2023-12-07T08:40:35;101463.34;;;9.09;67.61
59493;BME280;45497;43.996;22.876;2023-12-07T08:43:05;101458.94;;;9.37;64.28
59493;BME280;45497;43.996;22.876;2023-12-07T08:45:33;101468.41;;;9.40;65.69
59493;BME280;45497;43.996;22.876;2023-12-07T08:47:59;101462.63;;;9.92;65.87
59493;BME280;45497;43.996;22.876;2023-12-07T08:50:25;101452.09;;;9.82;63.37
59493;BME280;45497;43.996;22.876;2023-12-07T08:52:51;101460.28;;;8.75;62.50
59493;BME280;45497;43.996;22.876;2023-12-07T08:55:17;101466.31;;;8.17;62.59
59493;BME280;45497;43.996;22.876;2023-12-07T08:57:44;101459.72;;;7.92;63.21
59493;BME280;45497;43.996;22.876;2023-12-07T09:00:20;101460.72;;;7.60;62.61
59493;BME280;45497;43.996;22.876;2023-12-07T09:02:49;101470.03;;;7.33;62.54
59493;BME280;45497;43.996;22.876;2023-12-07T09:05:15;101466.94;;;7.28;62.66
59493;BME280;45497;43.996;22.876;2023-12-07T09:07:43;101466.88;;;7.18;62.44
59493;BME280;45497;43.996;22.876;2023-12-07T09:10:10;101468.78;;;7.16;62.95
59493;BME280;45497;43.996;22.876;2023-12-07T09:12:37;101469.78;;;7.15;62.45
59493;BME280;45497;43.996;22.876;2023-12-07T09:15:03;101466.44;;;7.13;62.45
59493;BME280;45497;43.996;22.876;2023-12-07T09:17:29;101468.75;;;7.06;62.41
59493;BME280;45497;43.996;22.876;2023-12-07T09:19:58;101477.50;;;7.07;62.68
59493;BME280;45497;43.996;22.876;2023-12-07T09:22:24;101463.97;;;7.00;62.38
59493;BME280;45497;43.996;22.876;2023-12-07T09:24:52;101461.16;;;6.92;62.56
59493;BME280;45497;43.996;22.876;2023-12-07T09:27:20;101467.19;;;6.83;62.49
59493;BME280;45497;43.996;22.876;2023-12-07T09:29:48;101459.00;;;6.86;62.54
59493;BME280;45497;43.996;22.876;2023-12-07T09:32:18;101466.22;;;6.84;63.00
59493;BME280;45497;43.996;22.876;2023-12-07T09:34:47;101472.75;;;7.01;62.47
59493;BME280;45497;43.996;22.876;2023-12-07T09:37:13;101470.81;;;7.03;62.39
59493;BME280;45497;43.996;22.876;2023-12-07T09:39:38;101456.31;;;6.76;62.57
59493;BME280;45497;43.996;22.876;2023-12-07T09:42:04;101456.72;;;6.60;63.35
59493;BME280;45497;43.996;22.876;2023-12-07T09:44:32;101465.63;;;6.59;63.12
59493;BME280;45497;43.996;22.876;2023-12-07T09:46:58;101459.06;;;6.54;63.35
59493;BME280;45497;43.996;22.876;2023-12-07T09:49:26;101463.13;;;6.79;62.84
59493;BME280;45497;43.996;22.876;2023-12-07T09:51:52;101463.22;;;6.88;62.73
59493;BME280;45497;43.996;22.876;2023-12-07T09:54:20;101466.19;;;6.95;62.63
59493;BME280;45497;43.996;22.876;2023-12-07T09:56:47;101455.44;;;6.87;62.79
59493;BME280;45497;43.996;22.876;2023-12-07T09:59:13;101467.72;;;6.98;62.45
59493;BME280;45497;43.996;22.876;2023-12-07T10:01:41;101467.75;;;7.07;62.23
59493;BME280;45497;43.996;22.876;2023-12-07T10:04:19;101465.34;;;7.16;61.72
59493;BME280;45497;43.996;22.876;2023-12-07T10:06:50;101459.53;;;7.22;61.71
59493;BME280;45497;43.996;22.876;2023-12-07T10:09:16;101467.78;;;7.28;61.75
59493;BME280;45497;43.996;22.876;2023-12-07T10:11:44;101463.72;;;7.24;62.06
59493;BME280;45497;43.996;22.876;2023-12-07T10:14:18;101458.31;;;7.26;61.82
59493;BME280;45497;43.996;22.876;2023-12-07T10:16:54;101463.31;;;7.29;61.72
59493;BME280;45497;43.996;22.876;2023-12-07T10:19:22;101467.97;;;7.16;61.86
59493;BME280;45497;43.996;22.876;2023-12-07T10:21:51;101457.81;;;7.11;61.85
59493;BME280;45497;43.996;22.876;2023-12-07T10:24:22;101466.69;;;7.10;62.04
59493;BME280;45497;43.996;22.876;2023-12-07T10:26:49;101465.22;;;7.17;61.91
59493;BME280;45497;43.996;22.876;2023-12-07T10:29:19;101463.03;;;7.22;61.86
59493;BME280;45497;43.996;22.876;2023-12-07T10:31:45;101459.59;;;7.32;61.75
59493;BME280;45497;43.996;22.876;2023-12-07T10:34:12;101458.13;;;7.39;61.45
59493;BME280;45497;43.996;22.876;2023-12-07T10:36:57;101447.31;;;7.42;61.33
59493;BME280;45497;43.996;22.876;2023-12-07T10:39:24;101462.34;;;7.51;61.13
59493;BME280;45497;43.996;22.876;2023-12-07T10:42:01;101467.78;;;7.59;61.03
59493;BME280;45497;43.996;22.876;2023-12-07T10:44:28;101456.28;;;7.60;61.14
59493;BME280;45497;43.996;22.876;2023-12-07T10:46:54;101451.00;;;7.60;60.94
59493;BME280;45497;43.996;22.876;2023-12-07T10:49:21;101455.44;;;7.60;60.80
59493;BME280;45497;43.996;22.876;2023-12-07T10:51:58;101466.50;;;7.54;60.97
59493;BME280;45497;43.996;22.876;2023-12-07T10:54:32;101456.09;;;7.52;61.01
59493;BME280;45497;43.996;22.876;2023-12-07T10:57:01;101465.16;;;7.59;60.95
59493;BME280;45497;43.996;22.876;2023-12-07T10:59:31;101455.97;;;7.54;60.88
59493;BME280;45497;43.996;22.876;2023-12-07T11:01:57;101455.47;;;7.39;61.35
59493;BME280;45497;43.996;22.876;2023-12-07T11:04:27;101459.41;;;7.44;61.34
59493;BME280;45497;43.996;22.876;2023-12-07T11:06:56;101447.44;;;7.40;61.22
59493;BME280;45497;43.996;22.876;2023-12-07T11:09:28;101458.81;;;7.41;61.29
59493;BME280;45497;43.996;22.876;2023-12-07T11:14:30;101449.97;;;7.21;61.62
59493;BME280;45497;43.996;22.876;2023-12-07T11:16:59;101448.72;;;7.04;61.51
59493;BME280;45497;43.996;22.876;2023-12-07T11:22:02;101455.06;;;6.92;62.13
59493;BME280;45497;43.996;22.876;2023-12-07T11:24:28;101445.00;;;6.85;62.22
59493;BME280;45497;43.996;22.876;2023-12-07T11:26:57;101451.09;;;6.86;62.18
59493;BME280;45497;43.996;22.876;2023-12-07T11:29:30;101445.78;;;6.76;62.36
59493;BME280;45497;43.996;22.876;2023-12-07T11:31:58;101450.03;;;6.88;62.10
59493;BME280;45497;43.996;22.876;2023-12-07T11:34:43;101457.72;;;6.80;62.42
59493;BME280;45497;43.996;22.876;2023-12-07T11:37:10;101450.16;;;6.87;62.15
59493;BME280;45497;43.996;22.876;2023-12-07T11:39:40;101454.31;;;6.89;62.20
59493;BME280;45497;43.996;22.876;2023-12-07T11:42:15;101457.53;;;6.93;61.75
59493;BME280;45497;43.996;22.876;2023-12-07T11:44:42;101444.59;;;6.69;61.93
59493;BME280;45497;43.996;22.876;2023-12-07T11:47:10;101437.66;;;6.68;62.00
59493;BME280;45497;43.996;22.876;2023-12-07T11:49:42;101441.50;;;6.31;62.45
59493;BME280;45497;43.996;22.876;2023-12-07T11:52:19;101448.81;;;6.39;62.45
59493;BME280;45497;43.996;22.876;2023-12-07T11:54:46;101443.56;;;6.28;62.71
59493;BME280;45497;43.996;22.876;2023-12-07T11:57:13;101443.56;;;6.28;62.40
59493;BME280;45497;43.996;22.876;2023-12-07T11:59:39;101445.88;;;6.10;62.33
59493;BME280;45497;43.996;22.876;2023-12-07T12:02:05;101444.56;;;5.93;63.05
59493;BME280;45497;43.996;22.876;2023-12-07T12:04:34;101448.81;;;6.28;62.56
59493;BME280;45497;43.996;22.876;2023-12-07T12:07:02;101444.75;;;6.24;62.21
59493;BME280;45497;43.996;22.876;2023-12-07T12:09:27;101440.44;;;6.34;61.80
59493;BME280;45497;43.996;22.876;2023-12-07T12:11:53;101440.91;;;6.28;62.06
59493;BME280;45497;43.996;22.876;2023-12-07T12:14:25;101438.69;;;6.23;61.54
59493;BME280;45497;43.996;22.876;2023-12-07T12:16:51;101446.25;;;6.05;62.25
59493;BME280;45497;43.996;22.876;2023-12-07T12:19:17;101441.44;;;5.88;62.76
59493;BME280;45497;43.996;22.876;2023-12-07T12:21:43;101432.72;;;5.76;62.20
59493;BME280;45497;43.996;22.876;2023-12-07T12:24:09;101437.28;;;5.97;62.52
59493;BME280;45497;43.996;22.876;2023-12-07T12:26:37;101441.91;;;6.27;62.30
59493;BME280;45497;43.996;22.876;2023-12-07T12:29:05;101445.81;;;6.32;61.60
59493;BME280;45497;43.996;22.876;2023-12-07T12:31:32;101440.31;;;6.36;61.89
59493;BME280;45497;43.996;22.876;2023-12-07T12:33:57;101437.34;;;6.29;61.68
59493;BME280;45497;43.996;22.876;2023-12-07T12:36:25;101439.22;;;6.38;61.93
59493;BME280;45497;43.996;22.876;2023-12-07T12:38:53;101432.06;;;6.29;61.76
59493;BME280;45497;43.996;22.876;2023-12-07T12:41:20;101437.34;;;6.29;61.80
59493;BME280;45497;43.996;22.876;2023-12-07T12:43:49;101438.47;;;6.04;62.44
59493;BME280;45497;43.996;22.876;2023-12-07T12:46:15;101432.13;;;6.06;62.42
59493;BME280;45497;43.996;22.876;2023-12-07T12:49:00;101435.78;;;6.26;62.03
59493;BME280;45497;43.996;22.876;2023-12-07T12:51:27;101437.50;;;6.16;61.86
59493;BME280;45497;43.996;22.876;2023-12-07T12:53:54;101434.81;;;6.27;62.00
59493;BME280;45497;43.996;22.876;2023-12-07T12:56:21;101432.63;;;6.44;61.56
59493;BME280;45497;43.996;22.876;2023-12-07T12:58:50;101450.25;;;6.32;61.68
59493;BME280;45497;43.996;22.876;2023-12-07T13:01:17;101435.91;;;6.25;61.43
59493;BME280;45497;43.996;22.876;2023-12-07T13:03:46;101439.16;;;6.28;61.61
59493;BME280;45497;43.996;22.876;2023-12-07T13:06:13;101443.78;;;6.36;61.63